Terminal Aerodrome Forecast
Issued by NWS

Home | Current Version | Previous Version | Text Only | Print | Product List | Glossary On
Versions: 1 2 3 4 5 6 7 8 9 10 11 12 13 14 15 16
000
FTUS43 KIND 272200 AAC
TAFLAF
TAF AMD
KLAF 272209Z 2722/2818 28011G20KT 6SM -RA BR OVC010
     FM280000 29010KT P6SM -RA OVC012
     FM280400 32007KT P6SM OVC012
     FM281000 33007KT P6SM SCT025 BKN180=

USA.gov is the U.S. government's official web portal to all federal, state and local government web resources and services.